PWSweather.com
Personal Weather Stations
Station Observations
WISCHPK61
Green Bay Schmitt Park, Green Bay, WI 54311

Green Bay Schmitt ParkGreen Bay, WI 54311

Lat: 44.514277, Lon: -87.935067

Elevation: 735

Station Type: Acu Rite Pro Weather Center model 02032C

http://greenbayweathercam.com

High Low Average
Temperature 78.4°F25.8°C 54.9°F12.7°C 64.2°F17.9°C
Dew Point 78.1°F25.6°C 51.2°F10.7°C 60.8°F16.0°C
Winds 1.2 mph 1.9 kmh Calm Calm Calm WSWCalm WSW
Wind Gusts 2.3 mph3.7 kmh -- --
Humidity 99% 45% 91%
Pressure 29.41 in995.9 mb 29.22 in989.5 mb -
Precipitation 0.01 in0.3 mm - -
Hour Temp Dew Point Humidity Winds Wind Gusts Pressure Precip Precip Rate Daily Precip Total
12:00 AM 60.4°F15.8°C 59.0°F15.0°C 95% Calm Calm -- 29.22 in989.5 mb - 0.00 in0.0 mm 0.00 in0.0 mm
01:00 AM 59.7°F15.4°C 59.4°F15.2°C 99% 1.2 mph SW1.9 kmh SW 2.3 mph3.7 kmh 29.23 in989.8 mb - 0.00 in0.0 mm 0.00 in0.0 mm
02:00 AM 59.0°F15.0°C 56.4°F13.6°C 91% Calm Calm -- 29.24 in990.2 mb - 0.00 in0.0 mm 0.00 in0.0 mm
03:00 AM 58.1°F14.5°C 57.8°F14.3°C 99% Calm Calm -- 29.25 in990.5 mb - 0.00 in0.0 mm 0.00 in0.0 mm
04:00 AM 56.1°F13.4°C 55.5°F13.1°C 98% Calm Calm -- 29.27 in991.2 mb - 0.01 in0.3 mm 0.01 in0.3 mm
05:00 AM 54.9°F12.7°C 54.6°F12.6°C 99% Calm Calm -- 29.30 in992.2 mb - 0.00 in0.0 mm 0.01 in0.3 mm
06:00 AM 54.9°F12.7°C 54.6°F12.6°C 99% Calm Calm -- 29.32 in992.9 mb - 0.00 in0.0 mm 0.01 in0.3 mm
07:00 AM 56.1°F13.4°C 55.8°F13.2°C 99% Calm Calm -- 29.32 in992.9 mb - 0.00 in0.0 mm 0.01 in0.3 mm
08:00 AM 59.0°F15.0°C 58.7°F14.8°C 99% Calm Calm -- 29.34 in993.6 mb - 0.00 in0.0 mm 0.01 in0.3 mm
09:00 AM 62.1°F16.7°C 61.8°F16.6°C 99% 1.2 mph W1.9 kmh W 1.2 mph1.9 kmh 29.34 in993.6 mb - 0.00 in0.0 mm 0.01 in0.3 mm
10:00 AM 66.7°F19.3°C 66.4°F19.1°C 99% Calm Calm -- 29.34 in993.6 mb - 0.00 in0.0 mm 0.01 in0.3 mm
11:00 AM 71.6°F22.0°C 71.3°F21.8°C 99% 1.2 mph SSW1.9 kmh SSW 1.2 mph1.9 kmh 29.35 in993.9 mb - 0.00 in0.0 mm 0.01 in0.3 mm
12:00 PM 74.3°F23.5°C 51.6°F10.9°C 45% Calm Calm -- 29.35 in993.9 mb - 0.00 in0.0 mm 0.01 in0.3 mm
01:00 PM 78.4°F25.8°C 78.1°F25.6°C 99% Calm Calm -- 29.35 in993.9 mb - 0.00 in0.0 mm 0.01 in0.3 mm
02:00 PM 78.0°F25.6°C 77.7°F25.4°C 99% Calm Calm -- 29.35 in993.9 mb - 0.00 in0.0 mm 0.01 in0.3 mm
03:00 PM 77.2°F25.1°C 54.9°F12.7°C 46% Calm Calm 2.3 mph3.7 kmh 29.35 in993.9 mb - 0.00 in0.0 mm 0.01 in0.3 mm
04:00 PM 74.3°F23.5°C 74.0°F23.3°C 99% Calm Calm -- 29.35 in993.9 mb - 0.00 in0.0 mm 0.01 in0.3 mm
07:00 PM 69.1°F20.6°C 68.8°F20.4°C 99% Calm Calm -- 29.36 in994.2 mb - 0.00 in0.0 mm 0.01 in0.3 mm
08:00 PM 60.8°F16.0°C 60.5°F15.8°C 99% 1.2 mph S1.9 kmh S -- 29.41 in995.9 mb - 0.00 in0.0 mm 0.01 in0.3 mm
09:00 PM 60.3°F15.7°C 51.2°F10.7°C 72% Calm Calm -- 29.40 in995.6 mb - 0.00 in0.0 mm 0.01 in0.3 mm
10:00 PM 60.3°F15.7°C 54.1°F12.3°C 80% Calm Calm -- 29.39 in995.3 mb - 0.00 in0.0 mm 0.01 in0.3 mm
11:00 PM 60.3°F15.7°C 55.1°F12.8°C 83% Calm Calm -- 29.39 in995.3 mb - 0.00 in0.0 mm 0.01 in0.3 mm